createdAt,value
2022-08-18T00:02:08.438Z,5.50
2022-08-18T00:05:00.535Z,5.60
2022-08-18T00:07:35.620Z,5.47
2022-08-18T00:10:05.737Z,5.00
2022-08-18T00:12:41.501Z,4.55
2022-08-18T00:15:12.048Z,5.20
2022-08-18T00:17:39.840Z,5.20
2022-08-18T00:20:11.866Z,5.15
2022-08-18T00:22:40.199Z,5.63
2022-08-18T00:25:15.304Z,5.40
2022-08-18T00:27:43.583Z,4.90
2022-08-18T00:30:27.604Z,5.30
2022-08-18T00:33:03.926Z,4.93
2022-08-18T00:35:35.316Z,4.95
2022-08-18T00:38:06.016Z,5.03
2022-08-18T00:44:00.531Z,5.40
2022-08-18T00:46:31.538Z,4.43
2022-08-18T00:51:51.364Z,5.53
2022-08-18T00:54:39.690Z,5.00
2022-08-18T00:57:08.949Z,4.65
2022-08-18T01:00:04.038Z,5.07
2022-08-18T01:02:40.253Z,5.03
2022-08-18T01:05:45.930Z,5.22
2022-08-18T01:08:15.526Z,5.35
2022-08-18T01:10:44.681Z,6.68
2022-08-18T01:13:11.726Z,5.20
2022-08-18T01:15:39.343Z,5.50
2022-08-18T01:18:33.281Z,5.57
2022-08-18T01:21:24.161Z,5.60
2022-08-18T01:23:53.849Z,5.43
2022-08-18T01:26:24.128Z,4.95
2022-08-18T01:28:52.366Z,5.10
2022-08-18T01:31:54.497Z,5.07
2022-08-18T01:34:24.997Z,5.13
2022-08-18T01:36:54.166Z,5.38
2022-08-18T01:41:01.126Z,5.00
2022-08-18T01:42:11.132Z,5.30
2022-08-18T01:44:40.628Z,4.68
2022-08-18T01:50:19.764Z,5.18
2022-08-18T01:55:19.651Z,4.77
2022-08-18T02:01:36.303Z,5.07
2022-08-18T02:04:33.194Z,5.07
2022-08-18T02:06:56.261Z,4.80
2022-08-18T02:09:24.586Z,5.13
2022-08-18T02:11:53.067Z,5.40
2022-08-18T02:14:31.452Z,4.93
2022-08-18T02:17:02.280Z,4.85
2022-08-18T02:19:34.536Z,5.57
2022-08-18T02:22:02.738Z,4.97
2022-08-18T02:24:30.291Z,4.97
2022-08-18T02:26:57.493Z,5.88
2022-08-18T02:29:24.717Z,5.60
2022-08-18T02:31:51.590Z,5.80
2022-08-18T02:34:18.889Z,6.00
2022-08-18T02:36:46.011Z,5.85
2022-08-18T02:39:13.071Z,4.72
2022-08-18T02:41:40.499Z,4.72
2022-08-18T02:44:09.242Z,4.85
2022-08-18T02:46:37.190Z,4.93
2022-08-18T02:49:06.107Z,5.20
2022-08-18T02:51:34.293Z,5.55
2022-08-18T02:54:01.318Z,5.43
2022-08-18T02:56:40.143Z,5.18
2022-08-18T02:59:20.825Z,5.10
2022-08-18T03:01:51.512Z,4.47
2022-08-18T03:04:28.626Z,5.22
2022-08-18T03:06:58.420Z,5.20
2022-08-18T03:09:26.578Z,5.05
2022-08-18T03:11:53.705Z,4.88
2022-08-18T03:14:25.958Z,5.22
2022-08-18T03:16:55.377Z,5.28
2022-08-18T03:19:28.397Z,4.65
2022-08-18T03:24:55.146Z,4.75
2022-08-18T03:27:28.198Z,5.10
2022-08-18T03:33:33.049Z,5.50
2022-08-18T03:36:14.682Z,5.82
2022-08-18T03:38:44.331Z,5.45
2022-08-18T03:41:58.734Z,6.30
2022-08-18T03:44:13.427Z,5.53
2022-08-18T03:46:44.799Z,5.88
2022-08-18T03:49:13.513Z,5.97
2022-08-18T03:51:46.791Z,6.80
2022-08-18T03:54:16.602Z,6.05
2022-08-18T03:56:46.135Z,6.30
2022-08-18T03:59:17.941Z,5.85
2022-08-18T04:01:46.910Z,5.70
2022-08-18T04:04:21.395Z,5.70
2022-08-18T04:06:58.746Z,5.80
2022-08-18T04:09:28.978Z,6.78
2022-08-18T04:12:15.472Z,8.25
2022-08-18T04:22:03.077Z,7.43
2022-08-18T04:28:17.487Z,7.03
2022-08-18T04:30:47.651Z,7.22
2022-08-18T04:33:16.591Z,7.85
2022-08-18T04:35:47.545Z,8.32
2022-08-18T04:38:14.916Z,8.18
2022-08-18T04:40:42.565Z,6.40
2022-08-18T04:43:15.312Z,5.82
2022-08-18T04:45:44.926Z,5.30
2022-08-18T04:48:12.888Z,6.40
2022-08-18T04:50:40.288Z,6.00
2022-08-18T04:53:26.054Z,6.30
2022-08-18T04:56:13.922Z,5.93
2022-08-18T05:02:14.807Z,5.53
2022-08-18T05:10:54.804Z,6.50
2022-08-18T05:13:22.479Z,5.93
2022-08-18T05:18:49.073Z,7.63
2022-08-18T05:21:24.688Z,6.47
2022-08-18T05:24:30.691Z,6.93
2022-08-18T05:36:49.308Z,6.78
2022-08-18T05:46:05.942Z,6.65
2022-08-18T05:48:43.691Z,6.35
2022-08-18T05:51:23.611Z,6.68
2022-08-18T05:57:52.937Z,5.82
2022-08-18T06:00:58.811Z,6.85
2022-08-18T06:03:57.769Z,6.35
2022-08-18T06:06:29.788Z,6.38
2022-08-18T06:09:05.696Z,6.25
2022-08-18T06:11:32.711Z,5.93
2022-08-18T06:14:00.382Z,8.25
2022-08-18T06:16:49.366Z,6.65
2022-08-18T06:19:36.739Z,6.68
2022-08-18T06:22:52.535Z,6.07
2022-08-18T06:25:46.329Z,6.63
2022-08-18T06:28:16.132Z,6.20
2022-08-18T06:31:03.665Z,5.80
2022-08-18T06:34:02.148Z,6.50
2022-08-18T06:36:38.328Z,6.13
2022-08-18T06:39:22.949Z,6.10
2022-08-18T06:41:55.787Z,6.40
2022-08-18T06:44:43.298Z,6.20
2022-08-18T06:47:46.115Z,5.95
2022-08-18T06:50:22.058Z,6.22
2022-08-18T06:53:04.810Z,6.32
2022-08-18T06:55:47.413Z,6.13
2022-08-18T06:58:17.945Z,6.25
2022-08-18T07:00:56.656Z,6.07
2022-08-18T07:03:44.922Z,6.05
2022-08-18T07:06:23.617Z,5.00
2022-08-18T07:08:53.624Z,5.75
2022-08-18T07:11:28.069Z,5.18
2022-08-18T07:14:15.520Z,5.18
2022-08-18T07:19:32.077Z,4.60
2022-08-18T07:22:05.263Z,4.63
2022-08-18T07:24:38.727Z,4.43
2022-08-18T07:27:08.001Z,4.72
2022-08-18T07:29:41.740Z,4.10
2022-08-18T07:32:20.916Z,4.68
2022-08-18T07:34:58.146Z,4.18
2022-08-18T07:37:43.390Z,4.38
2022-08-18T07:40:19.740Z,4.15
2022-08-18T07:43:00.486Z,4.07
2022-08-18T07:45:39.176Z,4.00
2022-08-18T07:51:19.245Z,4.25
2022-08-18T07:54:25.265Z,3.67
2022-08-18T07:57:16.380Z,3.80
2022-08-18T08:00:20.783Z,3.45
2022-08-18T08:03:17.916Z,3.60
2022-08-18T08:05:57.291Z,3.95
2022-08-18T08:09:01.028Z,3.90
2022-08-18T08:11:44.597Z,3.20
2022-08-18T08:14:19.784Z,3.33
2022-08-18T08:16:51.063Z,3.67
2022-08-18T08:20:11.981Z,3.47
2022-08-18T08:22:53.245Z,3.50
2022-08-18T08:25:47.655Z,3.90
2022-08-18T08:28:26.859Z,3.70
2022-08-18T08:31:13.841Z,3.33
2022-08-18T08:34:18.203Z,3.15
2022-08-18T08:36:47.807Z,2.97
2022-08-18T08:39:20.443Z,3.20
2022-08-18T08:42:31.350Z,2.85
2022-08-18T08:45:06.878Z,3.15
2022-08-18T08:47:51.004Z,2.78
2022-08-18T08:50:26.439Z,2.63
2022-08-18T08:53:08.759Z,2.95
2022-08-18T08:55:51.858Z,3.13
2022-08-18T08:58:44.952Z,2.80
2022-08-18T09:01:48.394Z,2.95
2022-08-18T09:05:07.485Z,3.10
2022-08-18T09:07:30.055Z,2.95
2022-08-18T09:10:26.762Z,2.72
2022-08-18T09:13:28.977Z,2.78
2022-08-18T09:16:24.391Z,2.60
2022-08-18T09:19:32.098Z,2.53
2022-08-18T09:22:05.109Z,2.20
2022-08-18T09:24:41.376Z,2.72
2022-08-18T09:28:09.504Z,2.90
2022-08-18T09:34:13.453Z,2.30
2022-08-18T09:36:42.001Z,2.67
2022-08-18T09:39:54.789Z,2.70
2022-08-18T09:43:01.196Z,2.20
2022-08-18T09:45:34.319Z,2.45
2022-08-18T09:51:15.796Z,2.20
2022-08-18T09:53:52.671Z,2.60
2022-08-18T09:56:54.460Z,2.13
2022-08-18T09:59:35.264Z,2.20
2022-08-18T10:02:03.948Z,2.38
2022-08-18T10:04:35.646Z,2.38
2022-08-18T10:07:27.814Z,2.38
2022-08-18T10:11:00.124Z,2.30
2022-08-18T10:13:03.196Z,2.55
2022-08-18T10:15:33.751Z,2.10
2022-08-18T10:18:22.710Z,2.20
2022-08-18T10:21:31.422Z,2.10
2022-08-18T10:27:09.069Z,2.20
2022-08-18T10:29:49.093Z,1.88
2022-08-18T10:32:16.172Z,2.17
2022-08-18T10:34:55.605Z,2.28
2022-08-18T10:37:28.349Z,2.10
2022-08-18T10:40:13.073Z,2.47
2022-08-18T10:42:44.564Z,2.80
2022-08-18T10:48:30.405Z,2.08
2022-08-18T10:51:11.849Z,2.10
2022-08-18T10:53:53.983Z,2.20
2022-08-18T10:56:43.771Z,2.25
2022-08-18T10:59:50.703Z,2.60
2022-08-18T11:03:01.879Z,2.08
2022-08-18T11:05:32.933Z,2.33
2022-08-18T11:08:04.761Z,2.58
2022-08-18T11:11:06.269Z,2.80
2022-08-18T11:13:48.950Z,2.78
2022-08-18T11:16:28.610Z,2.67
2022-08-18T11:19:10.140Z,2.63
2022-08-18T11:21:42.326Z,2.58
2022-08-18T11:24:15.985Z,2.40
2022-08-18T11:26:52.681Z,2.35
2022-08-18T11:29:29.016Z,2.40
2022-08-18T11:32:06.070Z,2.30
2022-08-18T11:34:51.192Z,2.60
2022-08-18T11:37:27.066Z,2.22
2022-08-18T11:39:58.484Z,2.40
2022-08-18T11:42:35.618Z,2.40
2022-08-18T11:47:33.571Z,2.50
2022-08-18T11:50:11.853Z,2.50
2022-08-18T11:52:53.650Z,2.60
2022-08-18T11:55:35.974Z,2.65
2022-08-18T11:58:04.293Z,2.50
2022-08-18T12:00:48.723Z,2.40
2022-08-18T12:03:37.365Z,2.42
2022-08-18T12:06:31.818Z,2.47
2022-08-18T12:09:05.020Z,2.42
2022-08-18T12:11:36.501Z,2.40
2022-08-18T12:14:30.696Z,2.33
2022-08-18T12:17:01.436Z,2.47
2022-08-18T12:19:31.219Z,2.60
2022-08-18T12:22:03.916Z,2.40
2022-08-18T12:27:12.297Z,2.40
2022-08-18T12:29:48.354Z,2.55
2022-08-18T12:32:18.127Z,2.33
2022-08-18T12:38:12.253Z,2.40
2022-08-18T12:43:07.137Z,2.30
2022-08-18T12:45:34.603Z,2.50
2022-08-18T12:48:06.645Z,2.25
2022-08-18T12:50:43.158Z,2.25
2022-08-18T12:53:30.445Z,2.40
2022-08-18T12:56:31.673Z,2.50
2022-08-18T12:59:04.366Z,2.60
2022-08-18T13:01:33.063Z,2.22
2022-08-18T13:06:59.905Z,2.80
2022-08-18T13:09:34.724Z,2.40
2022-08-18T13:12:16.755Z,2.50
2022-08-18T13:14:47.918Z,2.60
2022-08-18T13:17:29.475Z,2.13
2022-08-18T13:20:19.188Z,2.30
2022-08-18T13:22:48.083Z,2.10
2022-08-18T13:25:32.747Z,2.40
2022-08-18T13:28:00.653Z,1.98
2022-08-18T13:30:31.555Z,2.22
2022-08-18T13:33:02.476Z,2.28
2022-08-18T13:35:35.480Z,2.10
2022-08-18T13:38:18.924Z,2.38
2022-08-18T13:40:50.969Z,2.45
2022-08-18T13:43:26.025Z,2.33
2022-08-18T13:45:56.293Z,2.60
2022-08-18T13:48:25.442Z,2.63
2022-08-18T13:50:59.874Z,2.40
2022-08-18T13:53:30.005Z,2.40
2022-08-18T13:55:58.953Z,2.22
2022-08-18T13:58:27.378Z,2.30
2022-08-18T14:03:47.915Z,2.30
2022-08-18T14:06:22.151Z,2.50
2022-08-18T14:08:52.844Z,2.17
2022-08-18T14:11:27.590Z,2.30
2022-08-18T14:13:55.242Z,2.55
2022-08-18T14:16:26.560Z,1.90
2022-08-18T14:19:14.009Z,2.17
2022-08-18T14:22:02.810Z,2.85
2022-08-18T14:24:49.783Z,2.47
2022-08-18T14:27:18.329Z,2.35
2022-08-18T14:29:48.787Z,2.50
2022-08-18T14:32:29.543Z,2.67
2022-08-18T14:35:26.973Z,2.17
2022-08-18T14:37:47.169Z,2.70
2022-08-18T14:40:16.129Z,2.20
2022-08-18T14:45:34.408Z,2.15
2022-08-18T14:48:11.066Z,2.38
2022-08-18T14:50:40.213Z,2.40
2022-08-18T14:53:20.410Z,1.95
2022-08-18T14:55:52.305Z,2.40
2022-08-18T14:58:30.630Z,2.03
2022-08-18T15:01:00.779Z,2.10
2022-08-18T15:03:31.476Z,2.00
2022-08-18T15:06:04.799Z,2.60
2022-08-18T15:08:35.221Z,2.25
2022-08-18T15:11:11.393Z,2.03
2022-08-18T15:13:45.097Z,2.33
2022-08-18T15:16:14.489Z,2.47
2022-08-18T15:18:42.895Z,2.38
2022-08-18T15:21:35.576Z,2.13
2022-08-18T15:24:26.116Z,2.00
2022-08-18T15:26:57.608Z,2.25
2022-08-18T15:29:27.999Z,2.35
2022-08-18T15:32:05.137Z,2.47
2022-08-18T15:34:46.320Z,2.20
2022-08-18T15:37:19.430Z,1.98
2022-08-18T15:39:51.915Z,2.40
2022-08-18T15:42:23.661Z,2.33
2022-08-18T15:44:53.667Z,2.70
2022-08-18T15:47:25.103Z,2.70
2022-08-18T15:49:54.980Z,2.10
2022-08-18T15:52:26.733Z,2.30
2022-08-18T15:54:58.249Z,2.38
2022-08-18T15:57:38.789Z,2.10
2022-08-18T16:00:07.718Z,2.75
2022-08-18T16:02:40.912Z,2.30
2022-08-18T16:05:12.173Z,2.35
2022-08-18T16:07:45.239Z,2.42
2022-08-18T16:10:13.598Z,2.60
2022-08-18T16:12:45.579Z,2.10
2022-08-18T16:15:19.508Z,2.17
2022-08-18T16:17:52.391Z,2.50
2022-08-18T16:20:20.491Z,2.53
2022-08-18T16:22:47.822Z,3.28
2022-08-18T16:25:16.556Z,2.67
2022-08-18T16:27:44.089Z,2.20
2022-08-18T16:30:14.785Z,2.50
2022-08-18T16:32:42.424Z,2.95
2022-08-18T16:35:10.030Z,2.13
2022-08-18T16:37:37.139Z,2.55
2022-08-18T16:40:04.807Z,2.50
2022-08-18T16:42:33.132Z,2.42
2022-08-18T16:45:00.878Z,2.30
2022-08-18T16:49:58.438Z,2.30
2022-08-18T16:52:27.180Z,2.55
2022-08-18T16:54:57.611Z,2.40
2022-08-18T16:57:53.813Z,2.50
2022-08-18T17:00:42.681Z,2.30
2022-08-18T17:03:30.326Z,2.42
2022-08-18T17:06:02.360Z,2.40
2022-08-18T17:08:34.326Z,2.28
2022-08-18T17:11:02.672Z,2.38
2022-08-18T17:13:29.828Z,2.53
2022-08-18T17:15:57.214Z,2.67
2022-08-18T17:18:26.206Z,2.60
2022-08-18T17:20:54.356Z,3.10
2022-08-18T17:23:23.145Z,2.97
2022-08-18T17:25:51.124Z,2.95
2022-08-18T17:28:23.839Z,2.83
2022-08-18T17:30:53.485Z,2.95
2022-08-18T17:33:31.235Z,3.38
2022-08-18T17:36:03.123Z,2.83
2022-08-18T17:38:58.516Z,2.90
2022-08-18T17:41:27.876Z,3.60
2022-08-18T17:44:00.912Z,3.30
2022-08-18T17:46:38.196Z,3.13
2022-08-18T17:49:16.221Z,3.08
2022-08-18T17:51:48.899Z,3.33
2022-08-18T17:54:36.966Z,3.65
2022-08-18T17:57:13.045Z,3.42
2022-08-18T18:00:05.918Z,3.05
2022-08-18T18:02:33.549Z,2.90
2022-08-18T18:05:04.939Z,2.95
2022-08-18T18:07:40.066Z,9.68
2022-08-18T18:10:25.408Z,9.18
2022-08-18T18:13:27.956Z,5.28
2022-08-18T18:16:01.534Z,5.78
2022-08-18T18:18:42.425Z,5.05
2022-08-18T18:21:15.407Z,4.90
2022-08-18T18:23:48.806Z,4.85
2022-08-18T18:26:29.907Z,4.80
2022-08-18T18:29:29.023Z,4.57
2022-08-18T18:32:01.828Z,4.18
2022-08-18T18:34:33.438Z,4.80
2022-08-18T18:37:02.050Z,4.47
2022-08-18T18:39:33.257Z,11.00
2022-08-18T18:42:25.771Z,13.70
2022-08-18T18:44:55.840Z,10.50
2022-08-18T18:47:47.786Z,8.60
2022-08-18T18:50:26.642Z,9.30
2022-08-18T18:53:30.088Z,5.55
2022-08-18T18:56:15.492Z,5.90
2022-08-18T18:59:13.942Z,4.40
2022-08-18T19:02:33.707Z,4.07
2022-08-18T19:05:39.959Z,4.35
2022-08-18T19:08:21.974Z,4.22
2022-08-18T19:11:07.813Z,3.60
2022-08-18T19:13:54.374Z,3.33
2022-08-18T19:16:28.599Z,3.00
2022-08-18T19:19:38.335Z,2.95
2022-08-18T19:22:14.961Z,3.05
2022-08-18T19:25:07.325Z,2.97
2022-08-18T19:27:46.793Z,3.47
2022-08-18T19:30:16.439Z,3.17
2022-08-18T19:32:51.086Z,3.15
2022-08-18T19:35:37.915Z,3.00
2022-08-18T19:38:14.277Z,2.90
2022-08-18T19:41:19.936Z,2.78
2022-08-18T19:43:56.728Z,3.13
2022-08-18T19:46:34.725Z,2.80
2022-08-18T19:49:05.528Z,2.78
2022-08-18T19:51:39.322Z,2.78
2022-08-18T19:54:56.904Z,3.30
2022-08-18T19:57:37.479Z,2.80
2022-08-18T20:00:30.758Z,2.80
2022-08-18T20:03:22.125Z,2.45
2022-08-18T20:06:14.141Z,2.85
2022-08-18T20:09:03.535Z,2.50
2022-08-18T20:11:52.422Z,2.75
2022-08-18T20:14:20.530Z,2.30
2022-08-18T20:17:09.333Z,2.83
2022-08-18T20:19:36.265Z,2.80
2022-08-18T20:22:15.922Z,2.75
2022-08-18T20:24:57.108Z,2.65
2022-08-18T20:27:27.089Z,3.28
2022-08-18T20:30:31.002Z,3.00
2022-08-18T20:33:35.805Z,2.95
2022-08-18T20:36:22.400Z,3.33
2022-08-18T20:38:53.408Z,3.78
2022-08-18T20:41:30.185Z,3.80
2022-08-18T20:44:29.831Z,3.28
2022-08-18T20:47:19.072Z,3.00
2022-08-18T20:50:03.601Z,3.35
2022-08-18T20:52:39.405Z,3.00
2022-08-18T20:55:44.603Z,3.45
2022-08-18T20:58:19.674Z,3.60
2022-08-18T21:00:57.612Z,4.07
2022-08-18T21:03:43.236Z,3.60
2022-08-18T21:06:14.108Z,3.75
2022-08-18T21:08:51.072Z,4.18
2022-08-18T21:14:04.108Z,3.33
2022-08-18T21:16:45.158Z,3.30
2022-08-18T21:19:20.110Z,3.20
2022-08-18T21:21:52.076Z,3.22
2022-08-18T21:24:36.835Z,3.03
2022-08-18T21:27:10.803Z,3.05
2022-08-18T21:29:49.061Z,3.70
2022-08-18T21:32:30.537Z,4.00
2022-08-18T21:34:59.195Z,3.58
2022-08-18T21:37:33.833Z,3.13
2022-08-18T21:40:05.503Z,3.22
2022-08-18T21:42:43.272Z,3.70
2022-08-18T21:45:19.410Z,2.92
2022-08-18T21:47:56.683Z,3.33
2022-08-18T21:50:29.286Z,3.40
2022-08-18T21:53:28.073Z,3.15
2022-08-18T21:55:57.422Z,3.28
2022-08-18T21:58:33.607Z,3.10
2022-08-18T22:01:10.432Z,3.05
2022-08-18T22:03:59.416Z,3.50
2022-08-18T22:06:41.256Z,3.33
2022-08-18T22:09:30.099Z,2.80
2022-08-18T22:12:41.960Z,3.30
2022-08-18T22:15:16.714Z,3.42
2022-08-18T22:17:56.144Z,3.10
2022-08-18T22:20:49.546Z,3.10
2022-08-18T22:23:34.898Z,3.28
2022-08-18T22:26:17.350Z,3.05
2022-08-18T22:28:50.160Z,2.78
2022-08-18T22:31:21.051Z,2.65
2022-08-18T22:33:48.477Z,2.80
2022-08-18T22:36:20.782Z,2.97
2022-08-18T22:38:49.256Z,3.25
2022-08-18T22:41:16.815Z,2.90
2022-08-18T22:43:44.054Z,3.00
2022-08-18T22:46:11.223Z,2.67
2022-08-18T22:48:38.296Z,3.15
2022-08-18T22:51:06.024Z,3.05
2022-08-18T22:53:45.226Z,3.20
2022-08-18T22:56:22.743Z,3.05
2022-08-18T22:59:12.129Z,2.85
2022-08-18T23:01:45.260Z,3.60
2022-08-18T23:04:17.301Z,2.90
2022-08-18T23:06:52.474Z,3.50
2022-08-18T23:09:26.473Z,3.33
2022-08-18T23:11:55.692Z,3.00
2022-08-18T23:14:23.626Z,3.30
2022-08-18T23:16:51.529Z,2.83
2022-08-18T23:24:19.798Z,3.28
2022-08-18T23:29:32.516Z,3.38
2022-08-18T23:31:59.179Z,3.30
2022-08-18T23:34:27.357Z,3.17
2022-08-18T23:37:01.313Z,3.25
2022-08-18T23:39:32.438Z,3.00
2022-08-18T23:42:02.846Z,3.58
2022-08-18T23:44:30.429Z,3.50
2022-08-18T23:47:00.472Z,3.35
2022-08-18T23:49:32.074Z,3.25
2022-08-18T23:52:00.352Z,3.13
2022-08-18T23:54:32.131Z,2.90
2022-08-18T23:56:59.652Z,3.10
2022-08-18T23:59:27.896Z,3.55
